Time;durP1;ratioP1;P1;durP2;ratioP2;P2;SDS_P1;SDS_P2;PMS_P1;PMS_P2;Temp;Humidity;BMP_temperature;BMP_pressure;BME280_temperature;BME280_humidity;BME280_pressure;Samples;Min_cycle;Max_cycle;Signal;HPM_P1;HPM_P2
2022/12/24 00:01:38;;;;;;;7.00;1.38;;;10.20;88.00;;;;;;5050344;28;20389;-62
2022/12/24 00:04:06;;;;;;;4.85;1.10;;;10.20;87.90;;;;;;5054994;28;20037;-62
2022/12/24 00:06:33;;;;;;;6.97;1.48;;;10.20;88.40;;;;;;5056246;28;20487;-60
2022/12/24 00:08:59;;;;;;;6.10;1.52;;;10.20;87.90;;;;;;5056445;28;20053;-59
2022/12/24 00:11:26;;;;;;;5.63;1.52;;;10.20;87.80;;;;;;5056008;28;20114;-60
2022/12/24 00:13:55;;;;;;;7.32;1.27;;;10.20;88.10;;;;;;5055609;28;20586;-61
2022/12/24 00:16:22;;;;;;;8.18;1.45;;;10.20;88.00;;;;;;5057249;28;20072;-62
2022/12/24 00:18:48;;;;;;;6.65;1.25;;;10.20;87.50;;;;;;5052617;28;20036;-63
2022/12/24 00:21:16;;;;;;;8.85;1.52;;;10.20;87.70;;;;;;5056115;28;20056;-64
2022/12/24 00:23:43;;;;;;;7.20;1.35;;;10.20;87.60;;;;;;5053350;28;20057;-64
2022/12/24 00:26:10;;;;;;;6.20;1.40;;;10.20;87.60;;;;;;5046983;28;20419;-63
2022/12/24 00:28:37;;;;;;;10.70;1.50;;;10.20;87.50;;;;;;5051310;28;20509;-64
2022/12/24 00:31:10;;;;;;;8.10;1.77;;;10.20;87.40;;;;;;5049717;28;20047;-64
2022/12/24 00:33:37;;;;;;;7.70;1.45;;;10.20;87.70;;;;;;5049671;28;20041;-64
2022/12/24 00:36:04;;;;;;;6.15;1.38;;;10.20;87.60;;;;;;5052861;28;20059;-64
2022/12/24 00:38:31;;;;;;;7.20;1.08;;;10.20;87.20;;;;;;5052497;28;20045;-63
2022/12/24 00:41:00;;;;;;;6.13;1.25;;;10.20;87.60;;;;;;5054280;28;20044;-64
2022/12/24 00:43:28;;;;;;;7.10;1.35;;;10.20;87.40;;;;;;5049200;28;20059;-64
2022/12/24 00:45:55;;;;;;;4.13;1.20;;;10.20;87.10;;;;;;5050396;28;20072;-65
2022/12/24 00:48:24;;;;;;;7.43;1.60;;;10.20;87.50;;;;;;5050351;28;20059;-67
2022/12/24 00:50:51;;;;;;;4.80;1.08;;;10.20;87.40;;;;;;5052349;28;20048;-65
2022/12/24 00:53:18;;;;;;;6.63;1.85;;;10.20;87.50;;;;;;5048367;28;22024;-66
2022/12/24 00:55:45;;;;;;;7.18;1.35;;;10.20;87.20;;;;;;5053325;28;20056;-66
2022/12/24 00:58:12;;;;;;;9.68;1.63;;;10.20;87.40;;;;;;5051216;28;20046;-65
2022/12/24 01:00:39;;;;;;;6.78;1.27;;;10.10;87.40;;;;;;5053483;28;20048;-57
2022/12/24 01:03:06;;;;;;;4.82;1.38;;;10.10;87.20;;;;;;5052942;28;20047;-58
2022/12/24 01:05:34;;;;;;;6.70;1.50;;;10.20;87.00;;;;;;5054607;28;20052;-58
2022/12/24 01:08:01;;;;;;;10.02;1.60;;;10.10;87.10;;;;;;5056717;28;20133;-61
2022/12/24 01:10:28;;;;;;;4.55;1.35;;;10.10;87.40;;;;;;5049957;28;20511;-58
2022/12/24 01:12:55;;;;;;;6.82;1.63;;;10.10;86.90;;;;;;5056612;28;20109;-60
2022/12/24 01:15:22;;;;;;;3.60;1.33;;;10.10;87.00;;;;;;5054532;28;20487;-59
2022/12/24 01:17:49;;;;;;;5.13;1.23;;;10.10;87.20;;;;;;5052882;28;20049;-60
2022/12/24 01:20:17;;;;;;;7.57;1.75;;;10.10;87.20;;;;;;5053491;28;20045;-60
2022/12/24 01:22:47;;;;;;;6.70;1.42;;;10.20;87.30;;;;;;5056107;28;20418;-59
2022/12/24 01:25:14;;;;;;;4.40;1.27;;;10.20;87.10;;;;;;5054555;28;20051;-59
2022/12/24 01:27:41;;;;;;;9.20;1.80;;;10.10;87.30;;;;;;5053313;28;20503;-59
2022/12/24 01:30:12;;;;;;;6.68;1.55;;;10.10;87.20;;;;;;5055680;28;20037;-59
2022/12/24 01:32:40;;;;;;;5.68;1.33;;;10.10;87.30;;;;;;5055646;28;20052;-60
2022/12/24 01:35:09;;;;;;;6.78;1.58;;;10.10;87.10;;;;;;5055594;28;20423;-60
2022/12/24 01:37:36;;;;;;;8.35;1.50;;;10.10;87.40;;;;;;5052528;28;20068;-60
2022/12/24 01:45:47;;;;;;;4.05;1.00;;;10.10;87.00;;;;;;5066084;28;20045;-59
2022/12/24 01:48:18;;;;;;;7.30;1.75;;;10.10;87.30;;;;;;5067187;28;20106;-59
2022/12/24 01:50:46;;;;;;;6.68;1.20;;;10.10;87.10;;;;;;5063091;28;20135;-57
2022/12/24 01:53:15;;;;;;;9.23;2.10;;;10.10;87.00;;;;;;5063996;28;20471;-58
2022/12/24 01:55:45;;;;;;;7.63;1.40;;;10.10;87.10;;;;;;5065687;28;20053;-57
2022/12/24 01:58:15;;;;;;;8.60;1.40;;;10.10;87.20;;;;;;5063304;28;20040;-57
2022/12/24 02:00:42;;;;;;;9.70;2.10;;;10.10;87.30;;;;;;5064294;28;20044;-58
2022/12/24 02:03:09;;;;;;;6.75;1.48;;;10.00;87.10;;;;;;5066309;28;20052;-57
2022/12/24 02:05:45;;;;;;;6.07;1.55;;;10.00;87.20;;;;;;5063787;28;20114;-57
2022/12/24 02:08:13;;;;;;;7.65;1.50;;;10.00;87.10;;;;;;5064191;28;20052;-58
2022/12/24 02:10:40;;;;;;;6.35;1.30;;;10.00;87.20;;;;;;5065107;28;20052;-57
2022/12/24 02:13:09;;;;;;;6.15;1.45;;;10.00;87.30;;;;;;5066217;28;20041;-57
2022/12/24 02:15:46;;;;;;;6.05;1.35;;;10.00;87.30;;;;;;5067116;28;20048;-57
2022/12/24 02:18:22;;;;;;;6.07;1.15;;;10.00;87.40;;;;;;5068644;28;20049;-58
2022/12/24 02:21:18;;;;;;;6.68;1.25;;;10.00;87.20;;;;;;5070181;28;20056;-60
2022/12/24 02:24:08;;;;;;;6.97;2.03;;;10.00;87.20;;;;;;5047813;28;20063;-59
2022/12/24 02:27:01;;;;;;;6.57;1.25;;;10.00;87.30;;;;;;5068858;28;20078;-59
2022/12/24 02:30:00;;;;;;;7.85;1.45;;;10.00;87.10;;;;;;5067380;28;20075;-59
2022/12/24 02:32:41;;;;;;;5.00;1.08;;;10.00;87.10;;;;;;5064251;28;20787;-61
2022/12/24 02:35:11;;;;;;;;;;;9.90;87.10;;;;;;5066855;28;20052;-59
2022/12/24 02:37:42;;;;;;;2.95;1.00;;;9.90;86.70;;;;;;5067683;28;19924;-60
2022/12/24 02:40:13;;;;;;;9.18;1.15;;;9.90;87.00;;;;;;5067234;28;20051;-59
2022/12/24 02:42:42;;;;;;;6.70;1.20;;;9.90;87.00;;;;;;5064713;28;20436;-62
2022/12/24 02:45:13;;;;;;;7.50;1.58;;;9.90;86.90;;;;;;5068973;28;20490;-59
2022/12/24 02:47:43;;;;;;;9.07;1.38;;;9.80;86.60;;;;;;5063871;28;20756;-59
2022/12/24 02:50:15;;;;;;;6.45;2.00;;;9.90;86.80;;;;;;5067805;28;20059;-59
2022/12/24 02:52:43;;;;;;;6.25;1.42;;;9.90;86.50;;;;;;5067802;28;20059;-59
2022/12/24 02:55:15;;;;;;;7.60;1.40;;;9.90;86.50;;;;;;5067640;28;20049;-59
2022/12/24 02:58:06;;;;;;;5.30;1.15;;;9.80;86.70;;;;;;5067526;28;20135;-60
2022/12/24 03:00:40;;;;;;;;;;;9.90;86.10;;;;;;5068222;28;20041;-58
2022/12/24 03:03:22;;;;;;;4.93;1.05;;;9.80;86.50;;;;;;5065463;28;20416;-59
2022/12/24 03:05:52;;;;;;;7.53;1.48;;;9.90;86.60;;;;;;5065457;28;20040;-60
2022/12/24 03:08:32;;;;;;;6.93;1.47;;;9.90;86.90;;;;;;5067963;28;20048;-60
2022/12/24 03:11:02;;;;;;;;;;;9.90;86.50;;;;;;5068318;28;20529;-60
2022/12/24 03:13:29;;;;;;;6.15;1.45;;;9.90;86.20;;;;;;5064839;28;19954;-60
2022/12/24 03:15:58;;;;;;;8.90;1.23;;;9.80;86.30;;;;;;5067273;28;20044;-59
2022/12/24 03:18:30;;;;;;;6.35;1.58;;;9.90;86.00;;;;;;5062831;28;20041;-60
2022/12/24 03:21:03;;;;;;;6.80;1.30;;;9.90;85.90;;;;;;5068357;28;20056;-60
2022/12/24 03:23:30;;;;;;;7.07;1.75;;;9.90;86.20;;;;;;5068075;28;20438;-60
2022/12/24 03:26:01;;;;;;;6.18;1.23;;;9.90;86.40;;;;;;5067766;28;20426;-60
2022/12/24 03:28:29;;;;;;;8.20;1.25;;;9.90;86.30;;;;;;5064979;28;20052;-60
2022/12/24 03:31:01;;;;;;;9.98;1.75;;;9.90;85.90;;;;;;5068367;28;20482;-61
2022/12/24 03:33:28;;;;;;;4.50;1.02;;;9.90;85.90;;;;;;5067899;28;20045;-62
2022/12/24 03:35:55;;;;;;;6.70;1.42;;;9.80;86.40;;;;;;5068922;28;20040;-59
2022/12/24 03:38:22;;;;;;;6.85;1.27;;;9.90;86.30;;;;;;5067476;28;20433;-61
2022/12/24 03:40:49;;;;;;;6.00;1.50;;;9.80;86.40;;;;;;5063015;28;20049;-61
2022/12/24 03:43:17;;;;;;;5.93;1.30;;;9.90;86.70;;;;;;5056376;28;20175;-61
2022/12/24 03:45:44;;;;;;;5.22;1.27;;;9.90;86.10;;;;;;5056412;28;20041;-60
2022/12/24 03:48:12;;;;;;;6.88;1.25;;;9.90;86.00;;;;;;5056545;28;20388;-60
2022/12/24 03:50:39;;;;;;;7.65;1.70;;;9.90;86.10;;;;;;5055390;28;20503;-60
2022/12/24 03:53:05;;;;;;;6.80;1.77;;;9.90;86.20;;;;;;5056210;28;20045;-60
2022/12/24 03:55:32;;;;;;;6.38;1.40;;;9.90;86.10;;;;;;5055317;28;20048;-60
2022/12/24 03:57:59;;;;;;;5.28;1.35;;;9.80;86.10;;;;;;5057082;28;20139;-60
2022/12/24 04:00:26;;;;;;;7.65;1.75;;;9.90;86.00;;;;;;5049062;28;20604;-60
2022/12/24 04:02:53;;;;;;;9.38;1.42;;;9.80;86.30;;;;;;5055883;28;20525;-60
2022/12/24 04:05:22;;;;;;;7.55;1.58;;;9.80;86.10;;;;;;5055563;28;20390;-61
2022/12/24 04:07:48;;;;;;;4.57;1.42;;;9.80;86.10;;;;;;5056216;28;20052;-60
2022/12/24 04:10:16;;;;;;;9.20;1.58;;;9.80;86.10;;;;;;5055664;28;20523;-60
2022/12/24 04:12:43;;;;;;;6.80;1.70;;;9.80;85.90;;;;;;5056439;28;20053;-61
2022/12/24 04:15:11;;;;;;;4.75;1.10;;;9.70;86.00;;;;;;5054367;28;20041;-59
2022/12/24 04:17:38;;;;;;;3.90;1.20;;;9.70;86.20;;;;;;5055476;28;20103;-60
2022/12/24 04:20:06;;;;;;;4.50;1.25;;;9.70;86.50;;;;;;5053950;28;20052;-60
2022/12/24 04:22:34;;;;;;;7.72;1.52;;;9.70;86.00;;;;;;5053902;28;20465;-59
2022/12/24 04:25:01;;;;;;;8.65;1.50;;;9.80;86.40;;;;;;5053395;28;20048;-58
2022/12/24 04:27:30;;;;;;;10.27;1.70;;;9.70;86.30;;;;;;5053986;28;20402;-58
2022/12/24 04:29:57;;;;;;;8.05;1.45;;;9.70;86.10;;;;;;5054709;28;20098;-59
2022/12/24 04:32:25;;;;;;;8.48;1.45;;;9.70;86.30;;;;;;5057458;28;20044;-59
2022/12/24 04:34:52;;;;;;;6.57;1.65;;;9.70;86.20;;;;;;5046878;28;20049;-59
2022/12/24 04:37:20;;;;;;;5.80;1.35;;;9.70;86.40;;;;;;5049613;28;20041;-57
2022/12/24 04:39:48;;;;;;;9.20;1.52;;;9.70;85.90;;;;;;5051747;28;20045;-59
2022/12/24 04:42:15;;;;;;;5.20;1.40;;;9.70;86.00;;;;;;5063262;28;20467;-59
2022/12/24 04:44:42;;;;;;;5.50;1.08;;;9.70;86.10;;;;;;5064116;28;20052;-58
2022/12/24 04:47:09;;;;;;;9.30;1.35;;;9.80;86.00;;;;;;5063457;28;20595;-59
2022/12/24 04:49:36;;;;;;;7.20;1.35;;;9.70;85.90;;;;;;5064110;28;20060;-60
2022/12/24 04:52:03;;;;;;;9.63;1.25;;;9.80;85.90;;;;;;5061506;28;20049;-58
2022/12/24 04:54:30;;;;;;;5.88;1.30;;;9.80;86.00;;;;;;5066454;28;20052;-58
2022/12/24 04:56:59;;;;;;;8.30;1.10;;;9.80;86.00;;;;;;5065429;28;20055;-59
2022/12/24 04:59:25;;;;;;;5.90;1.00;;;9.80;86.10;;;;;;5061490;28;20610;-58
2022/12/24 05:01:52;;;;;;;5.88;1.25;;;9.80;86.50;;;;;;5064343;28;20044;-59
2022/12/24 05:04:19;;;;;;;7.95;1.63;;;9.70;86.70;;;;;;5062471;28;20509;-60
2022/12/24 05:06:47;;;;;;;5.82;1.38;;;9.70;87.00;;;;;;5059821;28;20515;-59
2022/12/24 05:09:14;;;;;;;6.47;1.40;;;9.70;87.10;;;;;;5060059;28;20560;-57
2022/12/24 05:11:41;;;;;;;6.07;0.98;;;9.70;87.20;;;;;;5064900;28;20055;-60
2022/12/24 05:14:09;;;;;;;9.18;1.10;;;9.70;87.20;;;;;;5066918;28;20048;-59
2022/12/24 05:16:37;;;;;;;6.18;1.58;;;9.70;87.40;;;;;;5066355;28;20063;-58
2022/12/24 05:19:05;;;;;;;5.07;1.00;;;9.70;87.30;;;;;;5066775;28;20052;-60
2022/12/24 05:21:32;;;;;;;8.32;1.30;;;9.70;87.40;;;;;;5067830;28;20048;-58
2022/12/24 05:26:46;;;;;;;5.80;1.25;;;9.70;87.10;;;;;;5065654;28;20048;-58
2022/12/24 05:29:15;;;;;;;8.85;1.58;;;9.70;87.20;;;;;;5065473;28;20045;-58
2022/12/24 05:31:43;;;;;;;6.78;1.30;;;9.70;87.10;;;;;;5065575;28;20094;-59
2022/12/24 05:34:11;;;;;;;4.35;1.20;;;9.70;87.20;;;;;;5061810;28;20368;-59
2022/12/24 05:36:38;;;;;;;7.45;1.92;;;9.70;87.40;;;;;;5065245;28;20503;-59
2022/12/24 05:39:07;;;;;;;12.25;1.67;;;9.70;87.50;;;;;;5063933;28;20123;-59
2022/12/24 05:41:36;;;;;;;5.78;1.52;;;9.70;87.30;;;;;;5060882;28;20064;-59
2022/12/24 05:44:03;;;;;;;8.65;1.30;;;9.70;87.40;;;;;;5065759;28;20199;-58
2022/12/24 05:46:31;;;;;;;5.60;1.17;;;9.70;87.30;;;;;;5062884;28;20044;-59
2022/12/24 05:48:58;;;;;;;5.82;1.77;;;9.70;87.30;;;;;;5067581;28;20067;-60
2022/12/24 05:51:25;;;;;;;9.00;1.50;;;9.60;87.30;;;;;;5072212;28;20052;-59
2022/12/24 05:53:52;;;;;;;8.27;1.40;;;9.60;87.40;;;;;;5071006;28;20063;-58
2022/12/24 05:56:21;;;;;;;9.55;2.00;;;9.60;87.30;;;;;;5071246;28;20044;-57
2022/12/24 05:58:48;;;;;;;4.05;1.08;;;9.60;87.40;;;;;;5071222;28;20044;-58
2022/12/24 06:01:16;;;;;;;4.40;1.10;;;9.60;87.60;;;;;;5071335;28;20052;-59
2022/12/24 06:03:44;;;;;;;5.47;1.67;;;9.60;87.40;;;;;;5069590;28;20048;-60
2022/12/24 06:06:14;;;;;;;6.65;1.20;;;9.60;87.40;;;;;;5070120;28;20059;-59
2022/12/24 06:08:42;;;;;;;5.93;1.25;;;9.60;87.40;;;;;;5070569;28;20037;-61
2022/12/24 06:11:11;;;;;;;8.85;1.52;;;9.60;87.60;;;;;;5072519;28;20046;-59
2022/12/24 06:13:39;;;;;;;6.88;1.08;;;9.60;87.60;;;;;;5071759;28;20127;-59
2022/12/24 06:16:09;;;;;;;9.90;1.45;;;9.60;87.40;;;;;;5067562;28;20049;-58
2022/12/24 06:18:36;;;;;;;5.13;1.38;;;9.60;87.40;;;;;;5070618;28;20048;-58
2022/12/24 06:21:05;;;;;;;7.90;1.30;;;9.60;87.40;;;;;;5070803;28;20063;-58
2022/12/24 06:23:34;;;;;;;8.07;1.67;;;9.60;87.50;;;;;;5070286;28;20060;-58
2022/12/24 06:26:01;;;;;;;9.63;1.60;;;9.60;87.50;;;;;;5069691;28;20056;-59
2022/12/24 06:28:35;;;;;;;5.13;1.33;;;9.60;87.50;;;;;;5051196;28;20044;-58
2022/12/24 06:31:04;;;;;;;4.40;1.10;;;9.60;87.50;;;;;;5070038;28;20045;-58
2022/12/24 06:33:32;;;;;;;5.50;1.20;;;9.60;87.70;;;;;;5068673;28;20384;-59
2022/12/24 06:36:00;;;;;;;7.00;1.27;;;9.60;87.70;;;;;;5070494;28;20047;-60
2022/12/24 06:38:31;;;;;;;7.80;1.58;;;9.60;87.70;;;;;;5069114;28;20094;-59
2022/12/24 06:40:58;;;;;;;3.63;0.95;;;9.60;87.60;;;;;;5066806;28;20132;-58
2022/12/24 06:43:25;;;;;;;4.65;1.05;;;9.60;87.70;;;;;;5057243;28;20061;-59
2022/12/24 06:45:53;;;;;;;7.85;1.67;;;9.60;87.70;;;;;;5059328;28;20542;-57
2022/12/24 06:48:20;;;;;;;9.73;1.63;;;9.60;87.70;;;;;;5058707;28;20068;-59
2022/12/24 06:50:47;;;;;;;8.05;1.40;;;9.60;87.80;;;;;;5056451;28;20135;-59
2022/12/24 06:53:14;;;;;;;9.05;1.42;;;9.60;87.80;;;;;;5060778;28;20041;-59
2022/12/24 06:55:42;;;;;;;5.03;1.42;;;9.60;87.90;;;;;;5057625;28;20049;-60
2022/12/24 06:58:10;;;;;;;5.40;1.58;;;9.60;87.90;;;;;;5056622;28;20044;-60
2022/12/24 07:00:37;;;;;;;5.45;1.00;;;9.60;87.90;;;;;;5057402;28;20049;-60
2022/12/24 07:03:04;;;;;;;9.88;1.42;;;9.60;87.90;;;;;;5058630;28;20114;-59
2022/12/24 07:05:31;;;;;;;6.70;1.15;;;9.60;87.90;;;;;;5051327;28;20045;-58
2022/12/24 07:07:57;;;;;;;7.05;1.52;;;9.60;88.00;;;;;;5052348;28;20049;-59
2022/12/24 07:10:25;;;;;;;6.78;1.90;;;9.60;88.00;;;;;;5052293;28;20049;-58
2022/12/24 07:12:53;;;;;;;9.98;1.90;;;9.60;88.00;;;;;;5054453;28;20095;-59
2022/12/24 07:15:20;;;;;;;8.02;1.67;;;9.60;88.10;;;;;;5047015;28;20492;-59
2022/12/24 07:17:47;;;;;;;6.63;1.48;;;9.60;88.10;;;;;;5048433;28;20049;-60
2022/12/24 07:20:15;;;;;;;8.27;1.17;;;9.60;88.10;;;;;;5057582;28;20053;-60
2022/12/24 07:22:42;;;;;;;4.38;1.30;;;9.60;88.20;;;;;;5056209;28;20041;-60
2022/12/24 07:25:10;;;;;;;8.13;1.58;;;9.60;88.20;;;;;;5056729;28;20045;-59
2022/12/24 07:27:38;;;;;;;9.35;1.90;;;9.60;88.30;;;;;;5055656;28;20049;-59
2022/12/24 07:30:07;;;;;;;7.68;1.25;;;9.60;88.40;;;;;;5054359;28;20048;-59
2022/12/24 07:32:35;;;;;;;6.53;1.48;;;9.70;88.40;;;;;;5055025;28;20085;-59
2022/12/24 07:35:02;;;;;;;6.30;1.50;;;9.60;88.40;;;;;;5054239;28;20475;-59
2022/12/24 07:37:29;;;;;;;6.97;1.40;;;9.60;88.50;;;;;;5054614;28;20049;-59
2022/12/24 07:39:56;;;;;;;7.63;1.65;;;9.70;88.50;;;;;;5056858;28;20044;-59
2022/12/24 07:42:22;;;;;;;7.22;1.70;;;9.70;88.50;;;;;;5066433;28;20048;-59
2022/12/24 07:44:49;;;;;;;10.02;1.73;;;9.70;88.40;;;;;;5067993;28;20053;-60
2022/12/24 07:47:18;;;;;;;10.48;1.92;;;9.70;88.50;;;;;;5068887;28;20041;-59
2022/12/24 07:49:45;;;;;;;11.32;2.17;;;9.70;88.40;;;;;;5068181;28;20040;-59
2022/12/24 07:52:12;;;;;;;8.35;2.15;;;9.70;88.50;;;;;;5068261;28;20037;-59
2022/12/24 07:54:39;;;;;;;7.60;1.48;;;9.70;88.60;;;;;;5068409;28;20495;-59
2022/12/24 07:57:06;;;;;;;8.95;1.73;;;9.70;88.60;;;;;;5069455;28;20063;-59
2022/12/24 07:59:33;;;;;;;9.57;2.00;;;9.70;88.80;;;;;;5066677;28;20055;-60
2022/12/24 08:02:00;;;;;;;7.90;2.22;;;9.70;89.00;;;;;;5068479;28;20041;-58
2022/12/24 08:04:32;;;;;;;7.43;1.75;;;9.70;89.30;;;;;;5065397;28;20044;-58
2022/12/24 08:06:59;;;;;;;7.55;1.80;;;9.70;89.20;;;;;;5064572;28;20049;-60
2022/12/24 08:09:26;;;;;;;9.10;3.20;;;9.70;89.30;;;;;;5063078;28;20056;-60
2022/12/24 08:11:54;;;;;;;6.47;1.80;;;9.70;89.50;;;;;;5066090;28;20106;-59
2022/12/24 08:14:21;;;;;;;12.65;2.15;;;9.70;89.90;;;;;;5067772;28;20098;-59
2022/12/24 08:16:47;;;;;;;7.80;1.98;;;9.70;89.60;;;;;;5064592;28;20056;-58
2022/12/24 08:19:14;;;;;;;11.65;2.47;;;9.70;89.60;;;;;;5066284;28;20067;-59
2022/12/24 08:21:43;;;;;;;7.28;1.45;;;9.70;89.80;;;;;;5068568;28;20060;-59
2022/12/24 08:24:09;;;;;;;11.27;2.20;;;9.70;90.40;;;;;;5066484;28;20662;-59
2022/12/24 08:26:36;;;;;;;8.25;1.80;;;9.70;90.10;;;;;;5065523;28;20049;-60
2022/12/24 08:29:04;;;;;;;11.15;1.98;;;9.70;90.30;;;;;;5067197;28;20048;-60
2022/12/24 08:31:35;;;;;;;6.35;1.40;;;9.70;90.30;;;;;;5066712;28;20051;-66
2022/12/24 08:34:02;;;;;;;8.20;1.65;;;9.70;90.40;;;;;;5066980;28;20029;-65
2022/12/24 08:36:29;;;;;;;9.05;1.92;;;9.70;90.50;;;;;;5067772;28;20052;-66
2022/12/24 08:38:57;;;;;;;7.78;1.67;;;9.70;90.20;;;;;;5068372;28;20048;-65
2022/12/24 08:41:24;;;;;;;7.50;1.40;;;9.70;90.20;;;;;;5062999;28;20063;-65
2022/12/24 08:43:51;;;;;;;6.68;1.80;;;9.70;90.20;;;;;;5064611;28;20045;-66
2022/12/24 08:46:17;;;;;;;7.47;1.48;;;9.70;90.20;;;;;;5062279;28;20426;-66
2022/12/24 08:48:44;;;;;;;7.90;1.50;;;9.80;90.20;;;;;;5062495;28;20059;-66
2022/12/24 08:51:12;;;;;;;8.75;1.88;;;9.80;90.40;;;;;;5064193;28;20052;-67
2022/12/24 08:53:39;;;;;;;6.28;1.50;;;9.80;90.40;;;;;;5063821;28;20040;-71
2022/12/24 08:56:10;;;;;;;8.10;1.60;;;9.80;90.30;;;;;;5065897;28;20051;-65
2022/12/24 08:58:37;;;;;;;11.05;2.17;;;9.90;90.50;;;;;;5065545;28;20052;-66
2022/12/24 09:01:11;;;;;;;11.23;2.30;;;9.90;90.50;;;;;;5049090;28;20503;-63
2022/12/24 09:03:38;;;;;;;9.45;1.65;;;9.90;90.70;;;;;;5062028;28;20048;-64
2022/12/24 09:06:07;;;;;;;11.38;2.70;;;9.90;90.40;;;;;;5063567;28;20554;-60
2022/12/24 09:08:34;;;;;;;13.43;3.03;;;9.90;90.70;;;;;;5066931;28;20048;-59
2022/12/24 09:11:04;;;;;;;10.43;3.17;;;10.00;90.70;;;;;;5059437;28;20048;-61
2022/12/24 09:13:33;;;;;;;13.50;2.38;;;10.00;90.70;;;;;;5064105;28;20079;-62
2022/12/24 09:16:00;;;;;;;9.43;2.03;;;10.00;90.70;;;;;;5066094;28;20056;-59
2022/12/24 09:18:28;;;;;;;14.07;2.38;;;10.00;90.60;;;;;;5061706;28;20049;-60
2022/12/24 09:20:59;;;;;;;7.93;2.00;;;10.10;90.70;;;;;;5057432;28;20051;-59
2022/12/24 09:23:26;;;;;;;7.35;2.55;;;10.10;90.80;;;;;;5067582;28;20057;-59
2022/12/24 09:25:53;;;;;;;13.15;2.78;;;10.10;90.90;;;;;;5061065;28;20059;-63
2022/12/24 09:28:20;;;;;;;13.85;2.88;;;10.20;90.60;;;;;;5061559;28;20045;-62
2022/12/24 09:30:57;;;;;;;11.23;3.13;;;10.20;90.70;;;;;;5061713;28;20071;-59
2022/12/24 09:33:24;;;;;;;9.27;2.53;;;10.20;90.70;;;;;;5063029;28;20079;-59
2022/12/24 09:35:51;;;;;;;11.00;3.20;;;10.20;90.60;;;;;;5066337;28;20055;-61
2022/12/24 09:38:18;;;;;;;8.80;3.45;;;10.20;90.30;;;;;;5063672;28;20493;-60
2022/12/24 09:40:45;;;;;;;13.73;2.50;;;10.20;90.70;;;;;;5059410;28;20053;-60
2022/12/24 09:43:16;;;;;;;14.02;3.13;;;10.30;90.60;;;;;;5053286;28;20052;-61
2022/12/24 09:45:50;;;;;;;11.93;3.30;;;10.30;90.50;;;;;;5036597;28;20048;-61
2022/12/24 09:48:22;;;;;;;15.60;3.70;;;10.30;90.60;;;;;;5047205;28;20052;-61
2022/12/24 09:50:54;;;;;;;15.70;3.40;;;10.40;90.40;;;;;;5050883;28;20053;-63
2022/12/24 09:53:29;;;;;;;11.60;2.40;;;10.40;90.40;;;;;;5053338;28;20091;-62
2022/12/24 09:56:10;;;;;;;11.95;3.05;;;10.40;90.20;;;;;;5048268;28;20060;-60
2022/12/24 09:58:40;;;;;;;12.32;2.85;;;10.40;90.10;;;;;;5050189;28;20545;-60
2022/12/24 10:01:07;;;;;;;;;;;10.40;90.00;;;;;;5052571;28;20071;-65
2022/12/24 10:03:36;;;;;;;10.95;2.63;;;10.40;90.00;;;;;;5050594;28;19925;-66
2022/12/24 10:06:08;;;;;;;10.85;2.22;;;10.40;89.80;;;;;;5049062;28;20044;-61
2022/12/24 10:08:44;;;;;;;11.60;2.72;;;10.50;89.90;;;;;;5055022;28;20499;-61
2022/12/24 10:11:19;;;;;;;11.60;2.90;;;10.60;89.80;;;;;;5048328;28;20520;-66
2022/12/24 10:14:11;;;;;;;7.60;2.50;;;10.60;89.70;;;;;;5050555;28;20092;-65
2022/12/24 10:16:49;;;;;;;10.88;2.30;;;10.60;89.60;;;;;;5046852;28;20060;-61
2022/12/24 10:19:23;;;;;;;12.13;2.20;;;10.60;89.60;;;;;;5052234;28;20690;-60
2022/12/24 10:22:04;;;;;;;14.77;2.80;;;10.60;89.60;;;;;;5046782;28;20053;-66
2022/12/24 10:24:36;;;;;;;9.43;2.25;;;10.60;89.60;;;;;;5050120;28;20534;-65
2022/12/24 10:27:09;;;;;;;10.10;2.10;;;10.60;89.60;;;;;;5049790;28;20060;-63
2022/12/24 10:29:40;;;;;;;9.65;2.45;;;10.60;89.60;;;;;;5046897;28;20468;-63
2022/12/24 10:32:18;;;;;;;12.80;2.55;;;10.60;89.50;;;;;;5050447;28;20057;-57
2022/12/24 10:34:52;;;;;;;11.52;2.65;;;10.60;89.40;;;;;;5052694;28;20053;-58
2022/12/24 10:37:23;;;;;;;11.23;2.38;;;10.70;89.50;;;;;;5052655;28;20070;-64
2022/12/24 10:39:50;;;;;;;12.40;3.35;;;10.70;89.50;;;;;;5054491;28;20072;-64
2022/12/24 10:42:18;;;;;;;10.75;2.30;;;10.70;89.30;;;;;;5066240;28;20048;-61
2022/12/24 10:44:49;;;;;;;13.68;2.67;;;10.70;89.40;;;;;;5070350;28;20060;-60
2022/12/24 10:47:20;;;;;;;14.45;2.85;;;10.80;89.30;;;;;;5064489;28;20135;-57
2022/12/24 10:49:54;;;;;;;12.45;2.72;;;10.70;89.20;;;;;;5066983;28;23286;-57
2022/12/24 10:52:24;;;;;;;10.25;2.58;;;10.80;89.20;;;;;;5065306;28;20060;-58
2022/12/24 10:55:05;;;;;;;;;;;10.80;89.20;;;;;;5068577;28;20052;-59
2022/12/24 10:57:32;;;;;;;11.65;2.35;;;10.80;89.10;;;;;;5066325;28;19920;-59
2022/12/24 10:59:59;;;;;;;11.23;2.63;;;10.80;89.10;;;;;;5069957;28;20044;-59
2022/12/24 11:02:29;;;;;;;10.68;2.30;;;10.80;89.10;;;;;;5064582;28;20053;-59
2022/12/24 11:04:59;;;;;;;12.35;2.60;;;10.80;89.10;;;;;;5065739;28;20043;-58
2022/12/24 11:07:27;;;;;;;10.10;2.05;;;10.80;89.10;;;;;;5061615;28;20137;-59
2022/12/24 11:09:58;;;;;;;13.02;2.70;;;10.90;89.00;;;;;;5068705;28;20048;-59
2022/12/24 11:12:27;;;;;;;12.43;2.90;;;10.80;89.00;;;;;;5066073;28;20048;-60
2022/12/24 11:15:02;;;;;;;10.40;2.33;;;10.90;89.00;;;;;;5064393;28;20131;-60
2022/12/24 11:17:30;;;;;;;8.10;2.05;;;10.90;88.90;;;;;;5067463;28;20483;-59
2022/12/24 11:20:02;;;;;;;11.40;2.35;;;10.90;88.90;;;;;;5068648;28;20098;-59
2022/12/24 11:22:29;;;;;;;;;;;11.00;88.90;;;;;;5065796;28;20051;-59
2022/12/24 11:25:02;;;;;;;10.40;2.20;;;11.00;88.90;;;;;;5067665;28;19928;-59
2022/12/24 11:27:38;;;;;;;12.85;2.35;;;11.10;88.70;;;;;;5048753;28;20147;-59
2022/12/24 11:30:25;;;;;;;12.48;2.30;;;11.10;88.70;;;;;;5065489;28;20517;-60
2022/12/24 11:33:15;;;;;;;16.52;2.75;;;11.10;88.60;;;;;;5062002;28;20052;-59
2022/12/24 11:35:46;;;;;;;16.33;2.90;;;11.10;88.60;;;;;;5066124;28;20053;-59
2022/12/24 11:38:20;;;;;;;14.88;2.60;;;11.20;88.50;;;;;;5067396;28;20044;-59
2022/12/24 11:40:49;;;;;;;12.30;3.17;;;11.10;88.40;;;;;;5067941;28;20094;-59
2022/12/24 11:43:18;;;;;;;13.15;2.75;;;11.10;88.40;;;;;;5066437;28;20048;-58
2022/12/24 11:45:49;;;;;;;16.02;2.67;;;11.10;88.50;;;;;;5064715;28;20505;-59
2022/12/24 11:48:29;;;;;;;10.45;2.25;;;11.10;88.50;;;;;;5066950;28;20060;-59
2022/12/24 11:50:59;;;;;;;9.85;2.33;;;11.10;88.50;;;;;;5060641;28;20041;-61
2022/12/24 11:53:34;;;;;;;13.65;2.90;;;11.10;88.40;;;;;;5065898;28;20099;-58
2022/12/24 11:56:06;;;;;;;12.18;2.45;;;11.00;88.40;;;;;;5064144;28;20063;-58
2022/12/24 11:58:40;;;;;;;11.90;2.13;;;11.00;88.20;;;;;;5063163;28;20082;-59
2022/12/24 12:01:16;;;;;;;10.90;2.28;;;11.00;88.10;;;;;;5068841;28;20056;-60
2022/12/24 12:03:46;;;;;;;8.77;2.40;;;11.00;88.10;;;;;;5068992;28;20045;-60
2022/12/24 12:06:28;;;;;;;10.57;2.85;;;10.90;88.30;;;;;;5064481;28;20146;-60
2022/12/24 12:09:00;;;;;;;11.05;2.38;;;11.00;88.20;;;;;;5067604;28;20075;-60
2022/12/24 12:11:28;;;;;;;9.05;2.20;;;10.90;88.20;;;;;;5064562;28;20380;-62
2022/12/24 12:13:58;;;;;;;11.25;2.58;;;10.90;88.00;;;;;;5065930;28;20040;-63
2022/12/24 12:16:59;;;;;;;8.23;2.28;;;11.00;87.80;;;;;;5062742;28;20067;-60
2022/12/24 12:19:20;;;;;;;10.25;2.45;;;11.00;87.90;;;;;;5066675;28;20044;-63
2022/12/24 12:21:49;;;;;;;11.77;2.13;;;11.00;88.00;;;;;;5068702;28;20042;-63
2022/12/24 12:24:21;;;;;;;9.48;2.53;;;11.00;87.90;;;;;;5064081;28;20056;-63
2022/12/24 12:26:56;;;;;;;11.48;2.55;;;11.00;87.90;;;;;;5061720;28;20053;-62
2022/12/24 12:29:27;;;;;;;11.55;2.08;;;11.10;87.90;;;;;;5066377;28;20063;-62
2022/12/24 12:31:57;;;;;;;9.90;2.40;;;11.00;87.80;;;;;;5053415;28;20043;-62
2022/12/24 12:34:26;;;;;;;;;;;11.00;87.80;;;;;;5068325;28;20067;-63
2022/12/24 12:36:57;;;;;;;12.70;2.60;;;11.00;87.80;;;;;;5064790;28;20017;-67
2022/12/24 12:39:24;;;;;;;12.20;2.97;;;11.00;87.70;;;;;;5065461;28;20048;-67
2022/12/24 12:41:59;;;;;;;11.85;2.83;;;11.00;87.80;;;;;;5054027;28;20353;-60
2022/12/24 12:44:46;;;;;;;12.50;2.58;;;11.00;87.70;;;;;;5052801;28;20696;-62
2022/12/24 12:47:39;;;;;;;11.45;2.00;;;10.90;87.80;;;;;;5046351;28;20063;-63
2022/12/24 12:50:14;;;;;;;11.10;2.53;;;10.90;87.60;;;;;;5052521;28;20488;-61
2022/12/24 12:53:06;;;;;;;9.60;1.77;;;10.90;87.60;;;;;;5054077;28;20056;-62
2022/12/24 12:55:44;;;;;;;12.27;2.30;;;10.90;87.60;;;;;;5056412;28;20053;-62
2022/12/24 12:58:19;;;;;;;11.77;2.33;;;10.90;87.90;;;;;;5056393;28;20080;-62
2022/12/24 13:00:49;;;;;;;10.93;2.40;;;10.90;87.90;;;;;;5041421;28;20041;-63
2022/12/24 13:03:41;;;;;;;;;;;10.90;87.70;;;;;;5045390;28;20040;-63
2022/12/24 13:06:27;;;;;;;10.88;2.28;;;10.90;87.80;;;;;;5050971;28;19931;-61
2022/12/24 13:09:24;;;;;;;11.65;1.83;;;11.00;87.70;;;;;;5050280;28;20049;-62
2022/12/24 13:12:17;;;;;;;14.05;2.25;;;10.90;87.60;;;;;;5054842;28;20411;-61
2022/12/24 13:14:57;;;;;;;10.20;2.47;;;10.90;87.60;;;;;;5053863;28;20044;-62